createdAt,value
2018-09-25T00:02:16.448Z,"    0"
2018-09-25T00:12:13.640Z,"    0"
2018-09-25T00:17:08.881Z,"    0"
2018-09-25T00:22:05.935Z,"    0"
2018-09-25T00:27:02.427Z,"    0"
2018-09-25T00:31:57.935Z,"    0"
2018-09-25T00:36:53.664Z,"    0"
2018-09-25T00:41:49.387Z,"    0"
2018-09-25T00:46:45.146Z,"    0"
2018-09-25T00:51:40.962Z,"    0"
2018-09-25T00:56:36.433Z,"    0"
2018-09-25T01:01:32.222Z,"    0"
2018-09-25T01:06:28.389Z,"    0"
2018-09-25T01:11:24.113Z,"    0"
2018-09-25T01:16:19.957Z,"    0"
2018-09-25T01:21:16.793Z,"    0"
2018-09-25T01:26:12.295Z,"    0"
2018-09-25T01:31:08.031Z,"    0"
2018-09-25T01:36:04.684Z,"    0"
2018-09-25T01:41:01.173Z,"    0"
2018-09-25T01:45:56.634Z,"    0"
2018-09-25T01:50:53.120Z,"    0"
2018-09-25T01:55:49.884Z,"    0"
2018-09-25T02:00:46.056Z,"    0"
2018-09-25T02:05:42.248Z,"    0"
2018-09-25T02:10:37.847Z,"    0"
2018-09-25T02:15:34.298Z,"    0"
2018-09-25T02:20:30.998Z,"    0"
2018-09-25T02:25:27.733Z,"    0"
2018-09-25T02:30:23.969Z,"    0"
2018-09-25T02:35:19.333Z,"    0"
2018-09-25T02:40:15.152Z,"    0"
2018-09-25T02:45:10.891Z,"    0"
2018-09-25T02:50:06.816Z,"    0"
2018-09-25T02:55:02.780Z,"    0"
2018-09-25T02:59:58.419Z,"    0"
2018-09-25T03:04:54.270Z,"    0"
2018-09-25T03:09:51.065Z,"    0"
2018-09-25T03:14:46.692Z,"    0"
2018-09-25T03:19:43.422Z,"    0"
2018-09-25T03:24:39.441Z,"    0"
2018-09-25T03:29:35.296Z,"    0"
2018-09-25T03:34:30.927Z,"    0"
2018-09-25T03:39:27.756Z,"    0"
2018-09-25T03:44:23.064Z,"    0"
2018-09-25T03:49:18.890Z,"    0"
2018-09-25T03:54:14.417Z,"    0"
2018-09-25T03:59:09.998Z,"    0"
2018-09-25T04:04:05.528Z,"    0"
2018-09-25T04:09:02.534Z,"    0"
2018-09-25T04:13:57.948Z,"    0"
2018-09-25T04:18:53.668Z,"    0"
2018-09-25T04:23:49.388Z,"    0"
2018-09-25T04:28:45.104Z,"    0"
2018-09-25T04:33:40.698Z,"    0"
2018-09-25T04:38:36.521Z,"    0"
2018-09-25T04:43:32.232Z,"    0"
2018-09-25T04:48:28.172Z,"    4"
2018-09-25T04:53:23.905Z,"    4"
2018-09-25T04:58:20.605Z,"   12"
2018-09-25T05:03:16.256Z,"   20"
2018-09-25T05:08:13.217Z,"   40"
2018-09-25T05:13:09.582Z,"   80"
2018-09-25T05:18:04.791Z,"  136"
2018-09-25T05:23:00.587Z,"  208"
2018-09-25T05:27:55.974Z,"  296"
2018-09-25T05:32:51.579Z,"  400"
2018-09-25T05:37:47.303Z,"  516"
2018-09-25T05:42:43.296Z,"  620"
2018-09-25T05:47:38.797Z,"  748"
2018-09-25T05:52:34.403Z,"  772"
2018-09-25T05:57:30.274Z,"  956"
2018-09-25T06:02:26.419Z," 1176"
2018-09-25T06:07:22.404Z," 1232"
2018-09-25T06:12:18.212Z," 1308"
2018-09-25T06:17:14.086Z," 1376"
2018-09-25T06:22:10.846Z," 1476"
2018-09-25T06:27:06.336Z," 1516"
2018-09-25T06:32:02.235Z," 1728"
2018-09-25T06:36:59.995Z," 1956"
2018-09-25T06:41:55.567Z," 3076"
2018-09-25T06:46:51.671Z," 1932"
2018-09-25T06:51:47.353Z," 1900"
2018-09-25T06:56:43.282Z," 1908"
2018-09-25T07:01:39.090Z," 1928"
2018-09-25T07:06:35.278Z," 1968"
2018-09-25T07:11:31.032Z," 1984"
2018-09-25T07:16:26.824Z," 2068"
2018-09-25T07:21:23.736Z," 2048"
2018-09-25T07:26:20.273Z," 2112"
2018-09-25T07:31:15.827Z," 2148"
2018-09-25T07:36:11.958Z," 2252"
2018-09-25T07:41:07.856Z," 2684"
2018-09-25T07:46:04.846Z," 2480"
2018-09-25T07:51:01.448Z," 2388"
2018-09-25T07:55:57.578Z," 2404"
2018-09-25T08:00:54.505Z," 2580"
2018-09-25T08:05:52.140Z," 4912"
2018-09-25T08:10:48.002Z," 2656"
2018-09-25T08:15:44.196Z," 2656"
2018-09-25T08:20:40.890Z," 2580"
2018-09-25T08:25:36.163Z," 2492"
2018-09-25T08:30:32.130Z," 2552"
2018-09-25T08:40:28.081Z," 2396"
2018-09-25T08:45:23.882Z," 2472"
2018-09-25T08:50:19.512Z," 2560"
2018-09-25T08:55:16.135Z," 2520"
2018-09-25T09:00:12.165Z," 4076"
2018-09-25T09:05:08.272Z," 2620"
2018-09-25T09:10:04.751Z," 2608"
2018-09-25T09:15:00.371Z," 2648"
2018-09-25T09:19:56.752Z," 2776"
2018-09-25T09:24:52.481Z," 2836"
2018-09-25T09:29:48.773Z," 4060"
2018-09-25T09:34:46.059Z," 4036"
2018-09-25T09:39:41.692Z," 3528"
2018-09-25T09:44:38.345Z," 2852"
2018-09-25T09:49:35.268Z," 3368"
2018-09-25T09:54:31.938Z," 4736"
2018-09-25T09:59:29.778Z," 8204"
2018-09-25T10:04:26.069Z," 8176"
2018-09-25T10:09:22.499Z," 7080"
2018-09-25T10:14:18.591Z," 6940"
2018-09-25T10:19:14.545Z," 6296"
2018-09-25T10:24:11.853Z," 8000"
2018-09-25T10:29:07.539Z," 5244"
2018-09-25T10:34:04.431Z," 4928"
2018-09-25T10:38:59.828Z," 5216"
2018-09-25T10:43:56.850Z," 5100"
2018-09-25T10:48:53.579Z," 5264"
2018-09-25T10:53:49.184Z," 6964"
2018-09-25T10:58:46.155Z," 7080"
2018-09-25T11:03:42.135Z," 6764"
2018-09-25T11:08:38.730Z,52896
2018-09-25T11:13:36.468Z,55808
2018-09-25T11:18:35.454Z,65504
2018-09-25T11:23:31.327Z,36160
2018-09-25T11:28:27.500Z,61824
2018-09-25T11:33:23.542Z,54080
2018-09-25T11:38:20.003Z,39680
2018-09-25T11:43:16.563Z,14092
2018-09-25T11:48:13.629Z,20192
2018-09-25T11:53:09.760Z,24992
2018-09-25T11:58:06.101Z,31488
2018-09-25T12:03:02.731Z,13120
2018-09-25T12:07:59.123Z,11108
2018-09-25T12:12:54.065Z,19840
2018-09-25T12:17:49.810Z," 5756"
2018-09-25T12:22:45.987Z,10752
2018-09-25T12:27:42.018Z,24032
2018-09-25T12:32:37.644Z," 5536"
2018-09-25T12:37:34.201Z," 5292"
2018-09-25T12:42:29.417Z," 5472"
2018-09-25T12:47:25.711Z," 6140"
2018-09-25T12:52:21.175Z," 6800"
2018-09-25T12:57:16.951Z," 7344"
2018-09-25T13:02:14.119Z," 7600"
2018-09-25T13:07:09.571Z," 6924"
2018-09-25T13:12:06.600Z," 5380"
2018-09-25T13:17:02.170Z," 5720"
2018-09-25T13:21:59.130Z," 6316"
2018-09-25T13:26:54.272Z," 6096"
2018-09-25T13:31:50.074Z," 4548"
2018-09-25T13:36:47.261Z," 3904"
2018-09-25T13:46:45.557Z," 3108"
2018-09-25T13:51:41.319Z," 2732"
2018-09-25T13:56:37.070Z," 2764"
2018-09-25T14:01:32.910Z," 2592"
2018-09-25T14:06:29.418Z," 2292"
2018-09-25T14:11:25.373Z," 2404"
2018-09-25T14:16:21.002Z," 2484"
2018-09-25T14:21:17.311Z," 3004"
2018-09-25T14:26:13.097Z," 3148"
2018-09-25T14:31:09.164Z," 3588"
2018-09-25T14:36:06.637Z," 4288"
2018-09-25T14:41:02.017Z," 4148"
2018-09-25T14:45:58.043Z," 3648"
2018-09-25T14:50:55.009Z," 2836"
2018-09-25T14:55:51.701Z," 2412"
2018-09-25T15:00:47.509Z," 2588"
2018-09-25T15:05:43.388Z," 2872"
2018-09-25T15:10:38.998Z," 2796"
2018-09-25T15:15:34.926Z," 2664"
2018-09-25T15:20:31.045Z," 2656"
2018-09-25T15:25:26.571Z," 2712"
2018-09-25T15:30:23.501Z," 2268"
2018-09-25T15:35:19.309Z," 1960"
2018-09-25T15:40:16.632Z," 1472"
2018-09-25T15:45:12.569Z," 1204"
2018-09-25T15:50:09.377Z,"  992"
2018-09-25T15:55:04.917Z,"  800"
2018-09-25T16:00:01.043Z,"  704"
2018-09-25T16:04:57.852Z,"  648"
2018-09-25T16:09:53.369Z,"  664"
2018-09-25T16:14:49.197Z,"  596"
2018-09-25T16:19:45.337Z,"  504"
2018-09-25T16:24:40.994Z,"  464"
2018-09-25T16:29:36.971Z,"  432"
2018-09-25T16:34:33.681Z,"  448"
2018-09-25T16:39:29.322Z,"  452"
2018-09-25T16:44:25.570Z,"  452"
2018-09-25T16:49:21.260Z,"  488"
2018-09-25T16:54:17.395Z,"  460"
2018-09-25T16:59:13.287Z,"  396"
2018-09-25T17:04:09.610Z,"  304"
2018-09-25T17:09:05.396Z,"  244"
2018-09-25T17:14:01.272Z,"  188"
2018-09-25T17:18:57.269Z,"  128"
2018-09-25T17:23:53.007Z,"   88"
2018-09-25T17:28:48.347Z,"   48"
2018-09-25T17:33:44.731Z,"   24"
2018-09-25T17:38:40.272Z,"   12"
2018-09-25T17:43:36.167Z,"    4"
2018-09-25T17:48:33.074Z,"    4"
2018-09-25T17:53:28.365Z,"    0"
2018-09-25T17:58:24.141Z,"    0"
2018-09-25T18:03:19.894Z,"    0"
2018-09-25T18:08:15.788Z,"    0"
2018-09-25T18:13:11.909Z,"    0"
2018-09-25T18:18:07.749Z,"    0"
2018-09-25T18:23:03.518Z,"    0"
2018-09-25T18:27:59.280Z,"    0"
2018-09-25T18:32:55.150Z,"    0"
2018-09-25T18:37:51.133Z,"    0"
2018-09-25T18:42:46.959Z,"    0"
2018-09-25T18:47:42.648Z,"    0"
2018-09-25T18:52:38.570Z,"    0"
2018-09-25T18:57:34.546Z,"    0"
2018-09-25T19:02:30.113Z,"    0"
2018-09-25T19:07:25.766Z,"    0"
2018-09-25T19:12:22.470Z,"    0"
2018-09-25T19:17:18.902Z,"    0"
2018-09-25T19:22:15.338Z,"    0"
2018-09-25T19:27:10.655Z,"    0"
2018-09-25T19:32:07.762Z,"    0"
2018-09-25T19:37:05.069Z,"    0"
2018-09-25T19:42:02.106Z,"    0"
2018-09-25T19:46:57.582Z,"    0"
2018-09-25T19:51:53.808Z,"    0"
2018-09-25T19:56:49.493Z,"    0"
2018-09-25T20:01:45.091Z,"    0"
2018-09-25T20:06:40.795Z,"    0"
2018-09-25T20:11:37.912Z,"    0"
2018-09-25T20:16:34.471Z,"    0"
2018-09-25T20:21:31.012Z,"    0"
2018-09-25T20:26:26.467Z,"    0"
2018-09-25T20:31:22.125Z,"    0"
2018-09-25T20:36:18.096Z,"    0"
2018-09-25T20:41:14.066Z,"    0"
2018-09-25T20:46:10.827Z,"    0"
2018-09-25T20:51:06.442Z,"    0"
2018-09-25T20:56:03.102Z,"    0"
2018-09-25T21:00:58.689Z,"    0"
2018-09-25T21:05:54.549Z,"    0"
2018-09-25T21:10:50.955Z,"    0"
2018-09-25T21:15:46.653Z,"    0"
2018-09-25T21:20:43.140Z,"    0"
2018-09-25T21:25:38.795Z,"    0"
2018-09-25T21:30:34.954Z,"    0"
2018-09-25T21:35:30.743Z,"    0"
2018-09-25T21:40:26.272Z,"    0"
2018-09-25T21:45:21.901Z,"    0"
2018-09-25T21:50:18.503Z,"    0"
2018-09-25T21:55:13.880Z,"    0"
2018-09-25T22:00:09.710Z,"    0"
2018-09-25T22:05:05.348Z,"    0"
2018-09-25T22:10:02.248Z,"    0"
2018-09-25T22:14:57.546Z,"    0"
2018-09-25T22:19:53.312Z,"    0"
2018-09-25T22:24:49.147Z,"    0"
2018-09-25T22:29:45.106Z,"    0"
2018-09-25T22:34:41.516Z,"    0"
2018-09-25T22:39:37.097Z,"    0"
2018-09-25T22:44:32.967Z,"    0"
2018-09-25T22:49:28.527Z,"    0"
2018-09-25T22:54:25.497Z,"    0"
2018-09-25T22:59:21.918Z,"    0"
2018-09-25T23:04:17.114Z,"    0"
2018-09-25T23:09:12.761Z,"    0"
2018-09-25T23:14:09.624Z,"    0"
2018-09-25T23:19:04.984Z,"    0"
2018-09-25T23:24:01.223Z,"    0"
2018-09-25T23:28:57.642Z,"    0"
2018-09-25T23:33:53.646Z,"    0"
2018-09-25T23:38:49.423Z,"    0"
2018-09-25T23:43:45.617Z,"    0"
2018-09-25T23:48:41.617Z,"    0"
2018-09-25T23:53:37.495Z,"    0"
2018-09-25T23:58:34.890Z,"    0"
